sensor_id;sensor_type;location;lat;lon;timestamp;pressure;altitude;pressure_sealevel;temperature;humidity
21236;BME280;10775;42.678;26.324;2023-11-21T00:00:51;98476.66;;;7.82;95.42
21236;BME280;10775;42.678;26.324;2023-11-21T00:03:16;98476.75;;;7.73;95.46
21236;BME280;10775;42.678;26.324;2023-11-21T00:05:42;98483.84;;;7.59;95.73
21236;BME280;10775;42.678;26.324;2023-11-21T00:08:08;98479.59;;;7.55;96.73
21236;BME280;10775;42.678;26.324;2023-11-21T00:10:34;98482.13;;;7.59;96.32
21236;BME280;10775;42.678;26.324;2023-11-21T00:13:00;98479.59;;;7.53;96.37
21236;BME280;10775;42.678;26.324;2023-11-21T00:15:27;98483.00;;;7.58;96.76
21236;BME280;10775;42.678;26.324;2023-11-21T00:17:53;98489.13;;;7.53;96.17
21236;BME280;10775;42.678;26.324;2023-11-21T00:20:18;98484.81;;;7.50;96.80
21236;BME280;10775;42.678;26.324;2023-11-21T00:22:44;98491.69;;;7.57;97.76
21236;BME280;10775;42.678;26.324;2023-11-21T00:25:10;98485.50;;;7.66;98.89
21236;BME280;10775;42.678;26.324;2023-11-21T00:27:36;98493.31;;;7.66;97.10
21236;BME280;10775;42.678;26.324;2023-11-21T00:30:03;98494.25;;;7.62;96.97
21236;BME280;10775;42.678;26.324;2023-11-21T00:32:30;98501.13;;;7.66;98.79
21236;BME280;10775;42.678;26.324;2023-11-21T00:34:56;98502.88;;;7.67;98.47
21236;BME280;10775;42.678;26.324;2023-11-21T00:37:21;98491.66;;;7.59;98.19
21236;BME280;10775;42.678;26.324;2023-11-21T00:39:47;98485.59;;;7.58;98.35
21236;BME280;10775;42.678;26.324;2023-11-21T00:42:12;98483.06;;;7.52;97.58
21236;BME280;10775;42.678;26.324;2023-11-21T00:44:38;98496.19;;;7.40;98.87
21236;BME280;10775;42.678;26.324;2023-11-21T00:47:04;98497.91;;;7.43;99.16
21236;BME280;10775;42.678;26.324;2023-11-21T00:49:30;98497.94;;;7.39;98.62
21236;BME280;10775;42.678;26.324;2023-11-21T00:51:55;98510.91;;;7.41;99.22
21236;BME280;10775;42.678;26.324;2023-11-21T00:54:23;98509.22;;;7.40;99.49
21236;BME280;10775;42.678;26.324;2023-11-21T00:56:48;98508.25;;;7.49;100.00
21236;BME280;10775;42.678;26.324;2023-11-21T00:59:14;98493.53;;;7.48;98.53
21236;BME280;10775;42.678;26.324;2023-11-21T01:01:39;98491.84;;;7.40;98.07
21236;BME280;10775;42.678;26.324;2023-11-21T01:04:05;98493.69;;;7.32;97.91
21236;BME280;10775;42.678;26.324;2023-11-21T01:06:32;98487.69;;;7.24;98.90
21236;BME280;10775;42.678;26.324;2023-11-21T01:08:58;98498.28;;;7.06;97.63
21236;BME280;10775;42.678;26.324;2023-11-21T01:11:23;98492.09;;;7.17;99.54
21236;BME280;10775;42.678;26.324;2023-11-21T01:13:49;98499.84;;;7.22;99.52
21236;BME280;10775;42.678;26.324;2023-11-21T01:16:14;98493.91;;;7.11;98.30
21236;BME280;10775;42.678;26.324;2023-11-21T01:18:39;98493.81;;;7.18;100.00
21236;BME280;10775;42.678;26.324;2023-11-21T01:21:05;98493.84;;;7.12;99.64
21236;BME280;10775;42.678;26.324;2023-11-21T01:23:31;98494.72;;;7.16;100.00
21236;BME280;10775;42.678;26.324;2023-11-21T01:25:57;98484.25;;;7.22;100.00
21236;BME280;10775;42.678;26.324;2023-11-21T01:28:22;98486.00;;;7.22;100.00
21236;BME280;10775;42.678;26.324;2023-11-21T01:30:48;98488.50;;;7.28;100.00
21236;BME280;10775;42.678;26.324;2023-11-21T01:33:14;98489.38;;;7.28;99.38
21236;BME280;10775;42.678;26.324;2023-11-21T01:35:41;98486.81;;;7.27;99.31
21236;BME280;10775;42.678;26.324;2023-11-21T01:38:07;98480.75;;;7.23;98.38
21236;BME280;10775;42.678;26.324;2023-11-21T01:40:34;98486.91;;;7.16;97.85
21236;BME280;10775;42.678;26.324;2023-11-21T01:43:00;98484.41;;;7.04;98.40
21236;BME280;10775;42.678;26.324;2023-11-21T01:45:25;98483.56;;;7.02;99.19
21236;BME280;10775;42.678;26.324;2023-11-21T01:47:51;98491.41;;;6.97;99.79
21236;BME280;10775;42.678;26.324;2023-11-21T01:50:18;98481.06;;;6.89;98.71
21236;BME280;10775;42.678;26.324;2023-11-21T01:52:46;98488.16;;;6.69;98.51
21236;BME280;10775;42.678;26.324;2023-11-21T01:55:14;98495.94;;;6.69;100.00
21236;BME280;10775;42.678;26.324;2023-11-21T01:57:43;98488.97;;;6.75;100.00
21236;BME280;10775;42.678;26.324;2023-11-21T02:00:09;98480.25;;;6.84;100.00
21236;BME280;10775;42.678;26.324;2023-11-21T02:02:45;98478.41;;;6.99;100.00
21236;BME280;10775;42.678;26.324;2023-11-21T02:05:12;98481.00;;;6.99;100.00
21236;BME280;10775;42.678;26.324;2023-11-21T02:07:41;98468.97;;;6.88;99.57
21236;BME280;10775;42.678;26.324;2023-11-21T02:10:10;98470.59;;;6.97;100.00
21236;BME280;10775;42.678;26.324;2023-11-21T02:12:40;98467.94;;;7.05;99.30
21236;BME280;10775;42.678;26.324;2023-11-21T02:15:06;98477.53;;;6.96;100.00
21236;BME280;10775;42.678;26.324;2023-11-21T02:17:35;98474.06;;;6.97;98.53
21236;BME280;10775;42.678;26.324;2023-11-21T02:20:02;98480.22;;;6.87;99.24
21236;BME280;10775;42.678;26.324;2023-11-21T02:22:31;98480.22;;;6.90;98.94
21236;BME280;10775;42.678;26.324;2023-11-21T02:24:59;98483.63;;;6.92;99.58
21236;BME280;10775;42.678;26.324;2023-11-21T02:27:24;98482.78;;;6.93;99.86
21236;BME280;10775;42.678;26.324;2023-11-21T02:29:50;98483.56;;;7.02;99.32
21236;BME280;10775;42.678;26.324;2023-11-21T02:32:16;98479.25;;;7.01;98.21
21236;BME280;10775;42.678;26.324;2023-11-21T02:34:44;98487.81;;;7.12;97.04
21236;BME280;10775;42.678;26.324;2023-11-21T02:37:09;98495.50;;;7.23;96.87
21236;BME280;10775;42.678;26.324;2023-11-21T02:39:35;98496.44;;;7.17;96.32
21236;BME280;10775;42.678;26.324;2023-11-21T02:42:01;98496.47;;;7.14;96.52
21236;BME280;10775;42.678;26.324;2023-11-21T02:44:26;98494.72;;;7.16;97.83
21236;BME280;10775;42.678;26.324;2023-11-21T02:46:51;98488.66;;;7.14;96.87
21236;BME280;10775;42.678;26.324;2023-11-21T02:49:17;98495.56;;;7.16;98.47
21236;BME280;10775;42.678;26.324;2023-11-21T02:51:42;98492.97;;;7.16;98.27
21236;BME280;10775;42.678;26.324;2023-11-21T02:54:08;98498.13;;;7.18;97.43
21236;BME280;10775;42.678;26.324;2023-11-21T02:56:34;98497.31;;;7.14;96.88
21236;BME280;10775;42.678;26.324;2023-11-21T02:59:00;98498.22;;;7.12;97.98
21236;BME280;10775;42.678;26.324;2023-11-21T03:01:26;98499.91;;;7.16;98.26
21236;BME280;10775;42.678;26.324;2023-11-21T03:03:52;98505.09;;;7.19;98.44
21236;BME280;10775;42.678;26.324;2023-11-21T03:06:19;98500.81;;;7.13;98.75
21236;BME280;10775;42.678;26.324;2023-11-21T03:08:45;98510.34;;;7.11;98.13
21236;BME280;10775;42.678;26.324;2023-11-21T03:11:11;98515.69;;;6.94;97.73
21236;BME280;10775;42.678;26.324;2023-11-21T03:13:38;98508.72;;;6.96;99.37
21236;BME280;10775;42.678;26.324;2023-11-21T03:16:04;98510.50;;;6.91;99.60
21236;BME280;10775;42.678;26.324;2023-11-21T03:18:31;98510.50;;;6.93;100.00
21236;BME280;10775;42.678;26.324;2023-11-21T03:20:57;98514.88;;;6.85;98.78
21236;BME280;10775;42.678;26.324;2023-11-21T03:23:22;98514.16;;;6.67;98.52
21236;BME280;10775;42.678;26.324;2023-11-21T03:25:47;98528.06;;;6.59;99.09
21236;BME280;10775;42.678;26.324;2023-11-21T03:28:13;98518.44;;;6.71;100.00
21236;BME280;10775;42.678;26.324;2023-11-21T03:30:38;98512.38;;;6.74;100.00
21236;BME280;10775;42.678;26.324;2023-11-21T03:33:04;98515.00;;;6.71;100.00
21236;BME280;10775;42.678;26.324;2023-11-21T03:35:29;98511.56;;;6.66;99.91
21236;BME280;10775;42.678;26.324;2023-11-21T03:37:55;98510.69;;;6.64;100.00
21236;BME280;10775;42.678;26.324;2023-11-21T03:40:21;98511.53;;;6.69;100.00
21236;BME280;10775;42.678;26.324;2023-11-21T03:42:47;98515.97;;;6.58;100.00
21236;BME280;10775;42.678;26.324;2023-11-21T03:45:12;98513.44;;;6.47;100.00
21236;BME280;10775;42.678;26.324;2023-11-21T03:47:41;98513.34;;;6.56;100.00
21236;BME280;10775;42.678;26.324;2023-11-21T03:50:07;98517.69;;;6.56;100.00
21236;BME280;10775;42.678;26.324;2023-11-21T03:52:33;98511.66;;;6.50;100.00
21236;BME280;10775;42.678;26.324;2023-11-21T03:55:00;98514.25;;;6.50;100.00
21236;BME280;10775;42.678;26.324;2023-11-21T03:57:26;98515.13;;;6.46;100.00
21236;BME280;10775;42.678;26.324;2023-11-21T03:59:53;98522.97;;;6.40;100.00
21236;BME280;10775;42.678;26.324;2023-11-21T04:02:19;98528.22;;;6.31;100.00
21236;BME280;10775;42.678;26.324;2023-11-21T04:04:44;98537.72;;;6.34;100.00
21236;BME280;10775;42.678;26.324;2023-11-21T04:07:10;98530.78;;;6.36;100.00
21236;BME280;10775;42.678;26.324;2023-11-21T04:09:36;98547.28;;;6.30;100.00
21236;BME280;10775;42.678;26.324;2023-11-21T04:12:02;98536.00;;;6.32;100.00
21236;BME280;10775;42.678;26.324;2023-11-21T04:14:27;98543.81;;;6.28;100.00
21236;BME280;10775;42.678;26.324;2023-11-21T04:16:53;98538.59;;;6.36;100.00
21236;BME280;10775;42.678;26.324;2023-11-21T04:19:19;98541.19;;;6.37;100.00
21236;BME280;10775;42.678;26.324;2023-11-21T04:21:44;98540.34;;;6.26;100.00
21236;BME280;10775;42.678;26.324;2023-11-21T04:24:10;98539.56;;;6.16;100.00
21236;BME280;10775;42.678;26.324;2023-11-21T04:26:35;98543.03;;;6.14;100.00
21236;BME280;10775;42.678;26.324;2023-11-21T04:29:01;98537.84;;;6.09;100.00
21236;BME280;10775;42.678;26.324;2023-11-21T04:31:27;98533.53;;;6.06;100.00
21236;BME280;10775;42.678;26.324;2023-11-21T04:33:52;98531.78;;;6.12;100.00
21236;BME280;10775;42.678;26.324;2023-11-21T04:36:19;98531.78;;;6.15;100.00
21236;BME280;10775;42.678;26.324;2023-11-21T04:38:45;98543.06;;;6.06;100.00
21236;BME280;10775;42.678;26.324;2023-11-21T04:41:11;98538.72;;;6.09;100.00
21236;BME280;10775;42.678;26.324;2023-11-21T04:43:37;98530.91;;;6.14;100.00
21236;BME280;10775;42.678;26.324;2023-11-21T04:46:02;98531.78;;;6.12;100.00
21236;BME280;10775;42.678;26.324;2023-11-21T04:48:28;98532.66;;;6.12;100.00
21236;BME280;10775;42.678;26.324;2023-11-21T04:50:53;98535.25;;;6.14;100.00
21236;BME280;10775;42.678;26.324;2023-11-21T04:53:19;98536.06;;;6.20;100.00
21236;BME280;10775;42.678;26.324;2023-11-21T04:55:45;98537.81;;;6.17;100.00
21236;BME280;10775;42.678;26.324;2023-11-21T04:58:11;98545.59;;;6.20;100.00
21236;BME280;10775;42.678;26.324;2023-11-21T05:00:37;98543.81;;;6.28;100.00
21236;BME280;10775;42.678;26.324;2023-11-21T05:03:03;98545.53;;;6.26;100.00
21236;BME280;10775;42.678;26.324;2023-11-21T05:05:29;98544.75;;;6.16;100.00
21236;BME280;10775;42.678;26.324;2023-11-21T05:07:57;98538.66;;;6.16;100.00
21236;BME280;10775;42.678;26.324;2023-11-21T05:10:23;98544.69;;;6.27;100.00
21236;BME280;10775;42.678;26.324;2023-11-21T05:12:48;98545.53;;;6.26;100.00
21236;BME280;10775;42.678;26.324;2023-11-21T05:15:16;98551.53;;;6.39;100.00
21236;BME280;10775;42.678;26.324;2023-11-21T05:17:43;98546.34;;;6.42;100.00
21236;BME280;10775;42.678;26.324;2023-11-21T05:20:15;98552.38;;;6.44;100.00
21236;BME280;10775;42.678;26.324;2023-11-21T05:22:45;98551.53;;;6.45;100.00
21236;BME280;10775;42.678;26.324;2023-11-21T05:25:11;98557.53;;;6.58;100.00
21236;BME280;10775;42.678;26.324;2023-11-21T05:27:37;98555.84;;;6.47;100.00
21236;BME280;10775;42.678;26.324;2023-11-21T05:30:03;98555.84;;;6.41;99.77
21236;BME280;10775;42.678;26.324;2023-11-21T05:32:31;98559.34;;;6.37;100.00
21236;BME280;10775;42.678;26.324;2023-11-21T05:34:56;98553.28;;;6.44;100.00
21236;BME280;10775;42.678;26.324;2023-11-21T05:37:22;98560.13;;;6.58;100.00
21236;BME280;10775;42.678;26.324;2023-11-21T05:39:49;98557.44;;;6.70;100.00
21236;BME280;10775;42.678;26.324;2023-11-21T05:42:14;98562.59;;;6.78;98.49
21236;BME280;10775;42.678;26.324;2023-11-21T05:44:41;98561.66;;;6.86;97.31
21236;BME280;10775;42.678;26.324;2023-11-21T05:47:08;98556.50;;;6.77;97.12
21236;BME280;10775;42.678;26.324;2023-11-21T05:49:33;98552.13;;;6.87;97.75
21236;BME280;10775;42.678;26.324;2023-11-21T05:52:00;98554.69;;;6.90;96.96
21236;BME280;10775;42.678;26.324;2023-11-21T05:54:26;98545.94;;;7.00;97.87
21236;BME280;10775;42.678;26.324;2023-11-21T05:56:51;98549.31;;;7.16;95.71
21236;BME280;10775;42.678;26.324;2023-11-21T05:59:17;98545.75;;;7.25;95.66
21236;BME280;10775;42.678;26.324;2023-11-21T06:01:42;98543.09;;;7.31;95.43
21236;BME280;10775;42.678;26.324;2023-11-21T06:04:08;98532.63;;;7.40;94.45
21236;BME280;10775;42.678;26.324;2023-11-21T06:06:35;98548.19;;;7.45;94.63
21236;BME280;10775;42.678;26.324;2023-11-21T06:09:00;98556.84;;;7.44;94.44
21236;BME280;10775;42.678;26.324;2023-11-21T06:11:26;98568.06;;;7.49;93.84
21236;BME280;10775;42.678;26.324;2023-11-21T06:13:51;98564.56;;;7.54;94.20
21236;BME280;10775;42.678;26.324;2023-11-21T06:16:18;98570.53;;;7.64;93.47
21236;BME280;10775;42.678;26.324;2023-11-21T06:18:47;98578.34;;;7.66;92.44
21236;BME280;10775;42.678;26.324;2023-11-21T06:21:12;98568.78;;;7.66;92.85
21236;BME280;10775;42.678;26.324;2023-11-21T06:23:38;98572.28;;;7.65;92.42
21236;BME280;10775;42.678;26.324;2023-11-21T06:26:04;98574.75;;;7.74;92.85
21236;BME280;10775;42.678;26.324;2023-11-21T06:28:31;98566.88;;;7.82;92.16
21236;BME280;10775;42.678;26.324;2023-11-21T06:30:57;98567.75;;;7.81;91.98
21236;BME280;10775;42.678;26.324;2023-11-21T06:33:23;98570.34;;;7.84;91.84
21236;BME280;10775;42.678;26.324;2023-11-21T06:35:48;98567.78;;;7.79;92.04
21236;BME280;10775;42.678;26.324;2023-11-21T06:38:15;98576.38;;;7.86;91.77
21236;BME280;10775;42.678;26.324;2023-11-21T06:40:40;98567.63;;;7.92;92.32
21236;BME280;10775;42.678;26.324;2023-11-21T06:43:06;98566.66;;;8.02;91.95
21236;BME280;10775;42.678;26.324;2023-11-21T06:45:33;98569.16;;;8.11;91.34
21236;BME280;10775;42.678;26.324;2023-11-21T06:47:59;98568.28;;;8.14;91.54
21236;BME280;10775;42.678;26.324;2023-11-21T06:50:25;98566.44;;;8.23;91.20
21236;BME280;10775;42.678;26.324;2023-11-21T06:52:50;98565.47;;;8.27;90.27
21236;BME280;10775;42.678;26.324;2023-11-21T06:55:16;98567.13;;;8.35;89.49
21236;BME280;10775;42.678;26.324;2023-11-21T06:57:42;98564.47;;;8.44;89.54
21236;BME280;10775;42.678;26.324;2023-11-21T07:00:08;98565.16;;;8.55;88.96
21236;BME280;10775;42.678;26.324;2023-11-21T07:02:34;98565.00;;;8.67;88.67
21236;BME280;10775;42.678;26.324;2023-11-21T07:04:59;98558.66;;;8.84;87.90
21236;BME280;10775;42.678;26.324;2023-11-21T07:07:25;98565.53;;;8.91;87.19
21236;BME280;10775;42.678;26.324;2023-11-21T07:09:50;98561.09;;;8.98;86.85
21236;BME280;10775;42.678;26.324;2023-11-21T07:12:17;98560.19;;;8.99;86.19
21236;BME280;10775;42.678;26.324;2023-11-21T07:14:43;98549.69;;;9.03;85.68
21236;BME280;10775;42.678;26.324;2023-11-21T07:17:11;98550.44;;;9.10;85.40
21236;BME280;10775;42.678;26.324;2023-11-21T07:19:37;98550.50;;;9.07;84.97
21236;BME280;10775;42.678;26.324;2023-11-21T07:22:03;98560.78;;;9.16;86.23
21236;BME280;10775;42.678;26.324;2023-11-21T07:24:29;98557.94;;;9.30;86.42
21236;BME280;10775;42.678;26.324;2023-11-21T07:26:57;98565.44;;;9.50;86.35
21236;BME280;10775;42.678;26.324;2023-11-21T07:29:23;98568.81;;;9.56;86.01
21236;BME280;10775;42.678;26.324;2023-11-21T07:31:52;98566.09;;;9.61;87.40
21236;BME280;10775;42.678;26.324;2023-11-21T07:34:17;98564.25;;;9.68;87.16
21236;BME280;10775;42.678;26.324;2023-11-21T07:36:43;98565.88;;;9.73;87.06
21236;BME280;10775;42.678;26.324;2023-11-21T07:39:08;98560.53;;;9.81;87.43
21236;BME280;10775;42.678;26.324;2023-11-21T07:41:34;98573.78;;;9.69;87.88
21236;BME280;10775;42.678;26.324;2023-11-21T07:43:59;98579.69;;;9.80;88.74
21236;BME280;10775;42.678;26.324;2023-11-21T07:46:26;98584.84;;;9.83;90.42
21236;BME280;10775;42.678;26.324;2023-11-21T07:48:52;98580.25;;;9.97;90.98
21236;BME280;10775;42.678;26.324;2023-11-21T07:51:17;98593.53;;;10.30;89.32
21236;BME280;10775;42.678;26.324;2023-11-21T07:53:43;98582.41;;;10.64;85.89
21236;BME280;10775;42.678;26.324;2023-11-21T07:56:09;98581.38;;;11.10;87.12
21236;BME280;10775;42.678;26.324;2023-11-21T07:58:35;98586.41;;;11.53;84.46
21236;BME280;10775;42.678;26.324;2023-11-21T08:01:02;98583.66;;;11.94;84.76
21236;BME280;10775;42.678;26.324;2023-11-21T08:03:28;98578.94;;;12.38;83.27
21236;BME280;10775;42.678;26.324;2023-11-21T08:05:55;98582.34;;;12.70;82.51
21236;BME280;10775;42.678;26.324;2023-11-21T08:08:21;98580.53;;;13.01;79.18
21236;BME280;10775;42.678;26.324;2023-11-21T08:10:47;98586.53;;;13.33;76.71
21236;BME280;10775;42.678;26.324;2023-11-21T08:13:13;98583.06;;;13.84;75.65
21236;BME280;10775;42.678;26.324;2023-11-21T08:15:41;98580.13;;;13.94;77.05
21236;BME280;10775;42.678;26.324;2023-11-21T08:18:11;98577.94;;;14.30;74.20
21236;BME280;10775;42.678;26.324;2023-11-21T08:20:38;98572.41;;;14.38;74.07
21236;BME280;10775;42.678;26.324;2023-11-21T08:23:05;98573.19;;;14.40;74.20
21236;BME280;10775;42.678;26.324;2023-11-21T08:25:31;98571.34;;;14.18;71.26
21236;BME280;10775;42.678;26.324;2023-11-21T08:27:57;98579.44;;;13.88;74.13
21236;BME280;10775;42.678;26.324;2023-11-21T08:30:22;98577.69;;;13.87;73.51
21236;BME280;10775;42.678;26.324;2023-11-21T08:32:49;98559.72;;;14.24;73.91
21236;BME280;10775;42.678;26.324;2023-11-21T08:35:17;98557.59;;;14.35;72.92
21236;BME280;10775;42.678;26.324;2023-11-21T08:37:43;98558.69;;;14.53;71.98
21236;BME280;10775;42.678;26.324;2023-11-21T08:40:09;98556.00;;;14.54;71.35
21236;BME280;10775;42.678;26.324;2023-11-21T08:42:35;98545.34;;;14.34;71.25
21236;BME280;10775;42.678;26.324;2023-11-21T08:45:00;98554.00;;;14.38;72.48
21236;BME280;10775;42.678;26.324;2023-11-21T08:47:26;98553.19;;;14.35;72.87
21236;BME280;10775;42.678;26.324;2023-11-21T08:49:52;98549.47;;;14.18;71.11
21236;BME280;10775;42.678;26.324;2023-11-21T08:52:18;98540.84;;;14.14;74.07
21236;BME280;10775;42.678;26.324;2023-11-21T08:54:51;98540.06;;;14.10;72.24
21236;BME280;10775;42.678;26.324;2023-11-21T08:57:25;98540.03;;;14.12;71.45
21236;BME280;10775;42.678;26.324;2023-11-21T08:59:50;98537.16;;;13.95;70.47
21236;BME280;10775;42.678;26.324;2023-11-21T09:02:25;98527.34;;;14.23;71.56
21236;BME280;10775;42.678;26.324;2023-11-21T09:04:51;98525.00;;;14.16;72.97
21236;BME280;10775;42.678;26.324;2023-11-21T09:07:18;98516.66;;;14.28;70.54
21236;BME280;10775;42.678;26.324;2023-11-21T09:09:46;98515.72;;;14.52;74.20
21236;BME280;10775;42.678;26.324;2023-11-21T09:12:11;98518.66;;;14.68;69.83
21236;BME280;10775;42.678;26.324;2023-11-21T09:14:37;98507.94;;;14.95;75.90
21236;BME280;10775;42.678;26.324;2023-11-21T09:17:04;98510.91;;;15.08;68.06
21236;BME280;10775;42.678;26.324;2023-11-21T09:19:29;98497.66;;;15.31;72.14
21236;BME280;10775;42.678;26.324;2023-11-21T09:21:54;98497.56;;;15.34;68.09
21236;BME280;10775;42.678;26.324;2023-11-21T09:24:22;98496.31;;;15.21;70.19
21236;BME280;10775;42.678;26.324;2023-11-21T09:26:47;98498.78;;;15.26;72.89
21236;BME280;10775;42.678;26.324;2023-11-21T09:29:13;98493.31;;;15.30;68.23
21236;BME280;10775;42.678;26.324;2023-11-21T09:31:39;98483.56;;;14.90;73.89
21236;BME280;10775;42.678;26.324;2023-11-21T09:34:04;98489.09;;;14.84;66.65
21236;BME280;10775;42.678;26.324;2023-11-21T09:36:31;98486.28;;;14.88;65.64
21236;BME280;10775;42.678;26.324;2023-11-21T09:38:58;98482.78;;;14.88;67.72
21236;BME280;10775;42.678;26.324;2023-11-21T09:41:56;98474.38;;;15.00;67.70
21236;BME280;10775;42.678;26.324;2023-11-21T09:44:32;98483.28;;;15.18;65.74
21236;BME280;10775;42.678;26.324;2023-11-21T09:47:01;98476.66;;;15.30;68.07
21236;BME280;10775;42.678;26.324;2023-11-21T09:49:28;98477.53;;;15.51;67.54
21236;BME280;10775;42.678;26.324;2023-11-21T09:51:58;98463.75;;;15.44;65.62
21236;BME280;10775;42.678;26.324;2023-11-21T09:54:23;98463.41;;;15.52;65.15
21236;BME280;10775;42.678;26.324;2023-11-21T09:56:50;98456.59;;;15.27;65.03
21236;BME280;10775;42.678;26.324;2023-11-21T09:59:16;98455.97;;;15.20;65.62
21236;BME280;10775;42.678;26.324;2023-11-21T10:01:42;98451.38;;;15.26;65.26
21236;BME280;10775;42.678;26.324;2023-11-21T10:04:09;98447.50;;;15.34;65.27
21236;BME280;10775;42.678;26.324;2023-11-21T10:06:39;98442.56;;;15.47;67.35
21236;BME280;10775;42.678;26.324;2023-11-21T10:09:09;98442.78;;;15.61;64.91
21236;BME280;10775;42.678;26.324;2023-11-21T10:11:38;98434.84;;;15.63;65.62
21236;BME280;10775;42.678;26.324;2023-11-21T10:14:10;98426.09;;;15.62;64.04
21236;BME280;10775;42.678;26.324;2023-11-21T10:16:38;98424.25;;;15.44;63.87
21236;BME280;10775;42.678;26.324;2023-11-21T10:19:04;98419.44;;;15.54;63.01
21236;BME280;10775;42.678;26.324;2023-11-21T10:21:34;98427.81;;;15.43;64.19
21236;BME280;10775;42.678;26.324;2023-11-21T10:24:00;98425.63;;;15.53;62.85
21236;BME280;10775;42.678;26.324;2023-11-21T10:26:27;98425.53;;;15.54;61.23
21236;BME280;10775;42.678;26.324;2023-11-21T10:28:57;98424.56;;;15.57;62.38
21236;BME280;10775;42.678;26.324;2023-11-21T10:31:24;98414.00;;;15.57;61.75
21236;BME280;10775;42.678;26.324;2023-11-21T10:33:50;98410.13;;;15.65;62.36
21236;BME280;10775;42.678;26.324;2023-11-21T10:36:28;98405.25;;;15.56;61.95
21236;BME280;10775;42.678;26.324;2023-11-21T10:38:54;98408.34;;;15.66;59.73
21236;BME280;10775;42.678;26.324;2023-11-21T10:41:20;98398.13;;;15.79;60.80
21236;BME280;10775;42.678;26.324;2023-11-21T10:43:46;98403.84;;;15.89;60.45
21236;BME280;10775;42.678;26.324;2023-11-21T10:46:11;98401.66;;;15.98;59.91
21236;BME280;10775;42.678;26.324;2023-11-21T10:48:41;98403.28;;;16.01;59.65
21236;BME280;10775;42.678;26.324;2023-11-21T10:51:07;98396.09;;;15.65;59.58
21236;BME280;10775;42.678;26.324;2023-11-21T10:53:38;98398.88;;;15.41;61.72
21236;BME280;10775;42.678;26.324;2023-11-21T10:56:08;98392.16;;;15.75;61.41
21236;BME280;10775;42.678;26.324;2023-11-21T10:58:43;98388.34;;;15.82;62.22
21236;BME280;10775;42.678;26.324;2023-11-21T11:01:09;98381.13;;;15.86;61.61
21236;BME280;10775;42.678;26.324;2023-11-21T11:03:39;98377.69;;;15.84;61.35
21236;BME280;10775;42.678;26.324;2023-11-21T11:06:05;98373.28;;;15.64;62.18
21236;BME280;10775;42.678;26.324;2023-11-21T11:08:37;98375.72;;;15.70;62.82
21236;BME280;10775;42.678;26.324;2023-11-21T11:11:04;98367.78;;;15.89;62.63
21236;BME280;10775;42.678;26.324;2023-11-21T11:13:30;98362.31;;;15.94;61.48
21236;BME280;10775;42.678;26.324;2023-11-21T11:15:58;98361.09;;;16.01;62.22
21236;BME280;10775;42.678;26.324;2023-11-21T11:18:28;98369.34;;;16.12;61.58
21236;BME280;10775;42.678;26.324;2023-11-21T11:20:59;98364.91;;;15.56;62.18
21236;BME280;10775;42.678;26.324;2023-11-21T11:23:54;98357.81;;;15.37;63.96
21236;BME280;10775;42.678;26.324;2023-11-21T11:26:50;98353.50;;;15.55;64.23
21236;BME280;10775;42.678;26.324;2023-11-21T11:32:18;98350.72;;;15.98;65.25
21236;BME280;10775;42.678;26.324;2023-11-21T11:37:24;98346.44;;;15.95;64.99
21236;BME280;10775;42.678;26.324;2023-11-21T11:39:50;98336.75;;;15.96;64.49
21236;BME280;10775;42.678;26.324;2023-11-21T11:42:17;98338.66;;;15.73;65.91
21236;BME280;10775;42.678;26.324;2023-11-21T11:50:10;98325.25;;;15.97;66.90
21236;BME280;10775;42.678;26.324;2023-11-21T11:52:41;98320.94;;;15.96;67.05
21236;BME280;10775;42.678;26.324;2023-11-21T11:55:08;98320.72;;;16.00;67.41
21236;BME280;10775;42.678;26.324;2023-11-21T11:57:35;98320.41;;;16.06;67.88
21236;BME280;10775;42.678;26.324;2023-11-21T12:00:12;98315.91;;;16.08;68.04
21236;BME280;10775;42.678;26.324;2023-11-21T12:02:42;98310.81;;;16.05;67.46
21236;BME280;10775;42.678;26.324;2023-11-21T12:05:14;98308.66;;;15.95;66.19
21236;BME280;10775;42.678;26.324;2023-11-21T12:10:18;98295.44;;;15.77;67.10
21236;BME280;10775;42.678;26.324;2023-11-21T12:12:48;98295.09;;;15.85;67.19
21236;BME280;10775;42.678;26.324;2023-11-21T12:15:15;98291.50;;;15.86;67.81
21236;BME280;10775;42.678;26.324;2023-11-21T12:17:44;98292.66;;;15.80;67.00
21236;BME280;10775;42.678;26.324;2023-11-21T12:20:11;98283.44;;;15.51;66.57
21236;BME280;10775;42.678;26.324;2023-11-21T12:22:50;98290.44;;;15.52;67.89
21236;BME280;10775;42.678;26.324;2023-11-21T12:25:18;98294.19;;;15.65;67.76
21236;BME280;10775;42.678;26.324;2023-11-21T12:27:53;98284.25;;;15.72;68.17
21236;BME280;10775;42.678;26.324;2023-11-21T12:30:21;98292.06;;;15.74;67.88
21236;BME280;10775;42.678;26.324;2023-11-21T12:32:54;98283.13;;;15.38;68.76
21236;BME280;10775;42.678;26.324;2023-11-21T12:35:22;98273.88;;;15.30;69.29
21236;BME280;10775;42.678;26.324;2023-11-21T12:37:50;98272.94;;;15.31;69.25
21236;BME280;10775;42.678;26.324;2023-11-21T12:40:17;98285.34;;;15.66;69.09
21236;BME280;10775;42.678;26.324;2023-11-21T12:42:48;98278.00;;;15.75;68.53
21236;BME280;10775;42.678;26.324;2023-11-21T12:47:50;98280.16;;;15.65;68.33
21236;BME280;10775;42.678;26.324;2023-11-21T12:50:20;98281.44;;;15.56;68.37
21236;BME280;10775;42.678;26.324;2023-11-21T12:52:49;98283.56;;;15.48;69.26
21236;BME280;10775;42.678;26.324;2023-11-21T12:55:17;98273.25;;;15.25;69.54
21236;BME280;10775;42.678;26.324;2023-11-21T12:57:44;98287.41;;;15.22;70.24
21236;BME280;10775;42.678;26.324;2023-11-21T13:00:12;98281.34;;;15.20;70.39
21236;BME280;10775;42.678;26.324;2023-11-21T13:02:50;98278.75;;;15.18;70.90
21236;BME280;10775;42.678;26.324;2023-11-21T13:05:24;98283.28;;;15.16;70.51
21236;BME280;10775;42.678;26.324;2023-11-21T13:07:49;98274.59;;;15.14;70.03
21236;BME280;10775;42.678;26.324;2023-11-21T13:10:19;98279.06;;;15.12;70.50